Time;durP1;ratioP1;P1;durP2;ratioP2;P2;SDS_P1;SDS_P2;PMS_P1;PMS_P2;Temp;Humidity;BMP_temperature;BMP_pressure;BME280_temperature;BME280_humidity;BME280_pressure;Samples;Min_cycle;Max_cycle;Signal;HPM_P1;HPM_P2
2022/07/20 00:00:47;;;;;;;0.80;0.30;;;14.80;99.90;;;;;;4950770;29;20023;-81
2022/07/20 00:03:14;;;;;;;1.27;0.10;;;15.20;99.90;;;;;;4953795;29;20030;-84
2022/07/20 00:05:44;;;;;;;0.85;0.38;;;15.30;99.90;;;;;;4956628;29;20073;-75
2022/07/20 00:08:11;;;;;;;0.50;0.10;;;15.50;99.90;;;;;;4946311;28;20046;-81
2022/07/20 00:11:39;;;;;;;0.65;0.20;;;15.50;99.90;;;;;;4957478;29;20023;-86
2022/07/20 00:13:35;;;;;;;0.20;0.13;;;15.40;99.90;;;;;;4937964;29;20726;-83
2022/07/20 00:16:02;;;;;;;0.20;0.17;;;15.20;99.90;;;;;;4937745;29;20050;-80
2022/07/20 00:18:30;;;;;;;0.10;0.10;;;15.00;99.90;;;;;;4953066;29;20053;-82
2022/07/20 00:20:57;;;;;;;2.05;0.30;;;15.10;99.90;;;;;;4951719;28;20027;-83
2022/07/20 00:23:25;;;;;;;0.65;0.60;;;15.60;99.90;;;;;;4950598;29;20028;-76
2022/07/20 00:25:52;;;;;;;0.13;0.10;;;16.30;99.90;;;;;;4944446;28;20026;-81
2022/07/20 00:28:19;;;;;;;0.65;0.17;;;16.30;99.90;;;;;;4942677;29;20027;-80
2022/07/20 00:30:47;;;;;;;1.40;0.20;;;16.10;99.90;;;;;;4946723;28;20035;-81
2022/07/20 00:33:14;;;;;;;0.57;0.20;;;15.90;99.90;;;;;;4943870;28;20109;-81
2022/07/20 00:35:42;;;;;;;0.40;0.40;;;15.80;99.90;;;;;;4943058;29;20059;-80
2022/07/20 00:38:09;;;;;;;2.53;0.20;;;15.60;99.90;;;;;;4942536;29;20027;-79
2022/07/20 00:40:36;;;;;;;0.80;0.20;;;15.40;99.90;;;;;;4943199;29;20133;-78
2022/07/20 00:43:04;;;;;;;0.47;0.13;;;15.30;99.90;;;;;;4942307;29;20023;-78
2022/07/20 00:45:31;;;;;;;0.38;0.17;;;15.20;99.90;;;;;;4944407;29;20062;-80
2022/07/20 00:47:59;;;;;;;0.40;0.20;;;15.40;99.90;;;;;;4942701;29;20069;-79
2022/07/20 00:50:27;;;;;;;0.30;0.25;;;15.70;99.90;;;;;;4944210;29;20085;-80
2022/07/20 00:52:54;;;;;;;1.02;0.30;;;16.00;99.90;;;;;;4945678;29;20042;-89
2022/07/20 00:55:23;;;;;;;0.30;0.20;;;16.90;99.90;;;;;;4943973;29;20031;-85
2022/07/20 00:57:50;;;;;;;0.77;0.38;;;17.50;99.90;;;;;;4949662;28;20037;-78
2022/07/20 01:00:18;;;;;;;0.38;0.20;;;17.40;99.90;;;;;;4954043;29;20067;-87
2022/07/20 01:02:45;;;;;;;0.10;0.10;;;17.30;99.90;;;;;;4947859;28;20035;-85
2022/07/20 01:05:15;;;;;;;0.55;0.30;;;17.50;99.90;;;;;;4952242;28;20049;-82
2022/07/20 01:07:54;;;;;;;1.58;0.30;;;17.70;99.90;;;;;;4950071;29;20114;-78
2022/07/20 01:10:21;;;;;;;0.65;0.20;;;17.70;99.90;;;;;;4937661;29;20031;-76
2022/07/20 01:12:50;;;;;;;1.08;0.28;;;17.90;99.90;;;;;;4947544;29;20039;-76
2022/07/20 01:15:18;;;;;;;1.38;0.20;;;18.00;99.90;;;;;;4953013;29;20050;-79
2022/07/20 01:17:45;;;;;;;0.80;0.20;;;18.50;99.90;;;;;;4945278;28;20066;-83
2022/07/20 01:20:18;;;;;;;1.42;0.30;;;18.90;99.90;;;;;;4952527;29;20065;-79
2022/07/20 01:22:47;;;;;;;0.25;0.20;;;19.40;99.90;;;;;;4951307;29;20053;-82
2022/07/20 01:25:15;;;;;;;0.73;0.17;;;19.40;99.90;;;;;;4954209;28;20031;-82
2022/07/20 01:27:42;;;;;;;0.10;0.10;;;19.10;99.90;;;;;;4949967;28;20038;-81
2022/07/20 01:30:10;;;;;;;0.20;0.10;;;19.10;99.90;;;;;;4951162;29;20031;-79
2022/07/20 01:32:38;;;;;;;0.40;0.20;;;19.60;99.90;;;;;;4941543;29;20107;-79
2022/07/20 01:35:06;;;;;;;0.98;0.30;;;20.60;99.90;;;;;;4943020;29;20039;-77
2022/07/20 01:37:33;;;;;;;0.68;0.20;;;21.40;99.90;;;;;;4942057;29;20038;-77
2022/07/20 01:40:01;;;;;;;5.35;0.20;;;21.00;99.50;;;;;;4940784;29;20466;-81
2022/07/20 01:42:28;;;;;;;1.45;0.20;;;20.40;99.90;;;;;;4951455;29;20030;-88
2022/07/20 01:44:56;;;;;;;0.25;0.10;;;20.20;99.90;;;;;;4951936;28;20024;-77
2022/07/20 01:47:23;;;;;;;0.40;0.10;;;20.50;99.90;;;;;;4942179;29;20032;-84
2022/07/20 01:49:50;;;;;;;0.98;0.20;;;21.50;99.90;;;;;;4946371;29;20070;-81
2022/07/20 01:52:18;;;;;;;5.47;0.30;;;21.70;99.10;;;;;;4941892;28;20035;-82
2022/07/20 01:54:45;;;;;;;3.60;0.30;;;21.30;99.60;;;;;;4945539;29;20023;-79
2022/07/20 01:57:12;;;;;;;0.05;0.05;;;21.40;99.90;;;;;;4946869;28;20019;-80
2022/07/20 01:59:40;;;;;;;0.30;0.10;;;21.50;98.60;;;;;;4946162;28;20053;-82
2022/07/20 02:02:07;;;;;;;0.10;0.10;;;21.10;99.50;;;;;;4947221;28;20039;-85
2022/07/20 02:04:35;;;;;;;0.82;0.10;;;20.40;99.80;;;;;;4949558;28;20031;-80
2022/07/20 02:07:03;;;;;;;1.55;0.10;;;19.70;99.90;;;;;;4948237;28;20032;-76
2022/07/20 02:09:31;;;;;;;0.20;0.20;;;19.30;99.90;;;;;;4951989;29;20109;-76
2022/07/20 02:11:58;;;;;;;0.98;0.10;;;18.90;99.90;;;;;;4949058;28;20469;-78
2022/07/20 02:14:26;;;;;;;1.08;0.10;;;18.60;99.90;;;;;;4947442;28;20051;-80
2022/07/20 02:16:55;;;;;;;0.40;0.10;;;18.10;99.90;;;;;;4947501;29;20070;-81
2022/07/20 02:19:22;;;;;;;1.45;0.10;;;17.50;99.90;;;;;;4945583;28;20134;-81
2022/07/20 02:21:50;;;;;;;2.53;0.60;;;17.10;99.90;;;;;;4951723;28;20035;-80
2022/07/20 02:24:17;;;;;;;0.57;0.30;;;16.80;99.90;;;;;;4953103;29;20050;-85
2022/07/20 02:26:44;;;;;;;1.55;0.20;;;16.60;99.90;;;;;;4941446;29;20035;-81
2022/07/20 02:29:12;;;;;;;1.33;0.20;;;16.40;99.90;;;;;;4945495;29;20023;-77
2022/07/20 02:31:39;;;;;;;0.63;0.22;;;16.40;99.90;;;;;;4941852;28;20538;-80
2022/07/20 02:34:06;;;;;;;1.58;0.30;;;16.30;99.90;;;;;;4951710;28;20493;-78
2022/07/20 02:36:34;;;;;;;0.20;0.10;;;16.30;99.90;;;;;;4945228;29;20023;-77
2022/07/20 02:39:03;;;;;;;2.58;0.52;;;16.10;99.90;;;;;;4949155;28;20039;-82
2022/07/20 02:41:32;;;;;;;0.80;0.10;;;16.10;99.90;;;;;;4945668;28;20031;-76
2022/07/20 02:44:00;;;;;;;0.25;0.10;;;16.20;99.90;;;;;;4945843;29;20039;-77
2022/07/20 02:46:27;;;;;;;1.10;0.10;;;16.30;99.90;;;;;;4945295;28;20386;-77
2022/07/20 02:48:55;;;;;;;0.00;0.00;;;16.40;99.90;;;;;;4946715;28;20035;-84
2022/07/20 02:51:22;;;;;;;0.10;0.10;;;16.60;99.90;;;;;;4956300;29;20375;-77
2022/07/20 02:53:49;;;;;;;0.17;0.10;;;16.70;99.90;;;;;;4938054;29;20450;-76
2022/07/20 02:56:17;;;;;;;0.10;0.10;;;16.80;99.90;;;;;;4948649;28;20379;-78
2022/07/20 02:58:44;;;;;;;0.25;0.08;;;16.80;99.90;;;;;;4951371;29;20043;-81
2022/07/20 03:01:12;;;;;;;2.20;0.30;;;16.70;99.90;;;;;;4948086;28;20383;-85
2022/07/20 03:03:39;;;;;;;0.20;0.20;;;16.70;99.90;;;;;;4942450;29;20056;-82
2022/07/20 03:06:07;;;;;;;0.73;0.10;;;16.70;99.90;;;;;;4954786;29;20023;-77
2022/07/20 03:08:34;;;;;;;0.30;0.20;;;16.90;99.90;;;;;;4950952;29;20027;-74
2022/07/20 03:11:01;;;;;;;0.47;0.20;;;17.20;99.90;;;;;;4954353;29;20031;-74
2022/07/20 03:13:29;;;;;;;0.50;0.20;;;17.10;99.90;;;;;;4940580;28;20039;-77
2022/07/20 03:15:56;;;;;;;0.38;0.10;;;16.80;99.90;;;;;;4949719;29;20111;-75
2022/07/20 03:18:24;;;;;;;0.35;0.10;;;16.60;99.90;;;;;;4942465;28;20122;-73
2022/07/20 03:20:51;;;;;;;2.60;0.30;;;16.60;99.90;;;;;;4942531;29;20178;-75
2022/07/20 03:23:19;;;;;;;0.38;0.20;;;16.30;99.90;;;;;;4952865;28;20031;-80
2022/07/20 03:25:46;;;;;;;0.10;0.10;;;16.30;99.90;;;;;;4954163;28;20482;-84
2022/07/20 03:28:14;;;;;;;0.63;0.20;;;16.30;99.90;;;;;;4949364;28;20024;-86
2022/07/20 03:30:41;;;;;;;0.45;0.20;;;16.20;99.90;;;;;;4944075;28;20639;-86
2022/07/20 03:33:08;;;;;;;2.17;0.15;;;16.20;99.90;;;;;;4935826;29;20047;-81
2022/07/20 03:35:36;;;;;;;0.55;0.20;;;16.20;99.90;;;;;;4950420;28;20028;-77
2022/07/20 03:38:03;;;;;;;1.52;0.65;;;16.30;99.90;;;;;;4948929;28;20455;-83
2022/07/20 03:40:30;;;;;;;1.70;0.17;;;16.30;99.90;;;;;;4952782;28;20313;-82
2022/07/20 03:42:58;;;;;;;0.47;0.20;;;16.50;99.90;;;;;;4945020;29;20031;-84
2022/07/20 03:45:25;;;;;;;0.22;0.10;;;16.50;99.90;;;;;;4955073;29;20038;-83
2022/07/20 03:47:53;;;;;;;0.57;0.28;;;16.50;99.90;;;;;;4944791;28;20117;-78
2022/07/20 03:50:20;;;;;;;0.30;0.10;;;16.60;99.90;;;;;;4950881;28;20422;-82
2022/07/20 03:52:47;;;;;;;0.08;0.08;;;16.90;99.90;;;;;;4933381;29;20078;-84
2022/07/20 03:55:15;;;;;;;1.13;0.17;;;17.10;99.90;;;;;;4946044;28;20574;-78
2022/07/20 03:57:42;;;;;;;0.10;0.10;;;17.10;99.90;;;;;;4936676;29;20032;-82
2022/07/20 04:00:10;;;;;;;0.98;0.10;;;16.90;99.90;;;;;;4944084;28;20106;-81
2022/07/20 04:02:38;;;;;;;0.20;0.17;;;16.60;99.90;;;;;;4951467;29;20503;-85
2022/07/20 04:05:06;;;;;;;0.20;0.10;;;16.50;99.90;;;;;;4952853;28;20101;-84
2022/07/20 04:07:33;;;;;;;1.05;0.40;;;16.50;99.90;;;;;;4950516;28;20037;-90
2022/07/20 04:10:01;;;;;;;0.50;0.25;;;16.40;99.90;;;;;;4944126;29;20031;-82
2022/07/20 04:12:28;;;;;;;0.85;0.30;;;16.30;99.90;;;;;;4943164;29;20378;-74
2022/07/20 04:14:56;;;;;;;0.30;0.10;;;16.30;99.90;;;;;;4942609;29;20082;-78
2022/07/20 04:17:23;;;;;;;0.50;0.20;;;16.30;99.90;;;;;;4943051;29;20026;-76
2022/07/20 04:19:51;;;;;;;2.15;0.30;;;16.40;99.90;;;;;;4944799;29;20047;-81
2022/07/20 04:22:18;;;;;;;1.45;0.52;;;16.40;99.90;;;;;;4941961;29;20036;-78
2022/07/20 04:24:46;;;;;;;2.47;0.95;;;16.20;99.90;;;;;;4946982;29;20106;-77
2022/07/20 04:27:13;;;;;;;0.40;0.30;;;16.20;99.90;;;;;;4943253;29;20027;-79
2022/07/20 04:29:41;;;;;;;1.27;0.30;;;16.10;99.90;;;;;;4946693;29;20051;-75
2022/07/20 04:32:09;;;;;;;3.88;1.65;;;16.10;99.90;;;;;;4946100;29;20466;-76
2022/07/20 04:34:36;;;;;;;3.10;1.13;;;16.10;99.90;;;;;;4942781;28;20051;-82
2022/07/20 04:37:04;;;;;;;0.35;0.20;;;16.20;99.90;;;;;;4942973;29;20118;-79
2022/07/20 04:39:32;;;;;;;0.20;0.10;;;16.10;99.90;;;;;;4942624;29;20039;-78
2022/07/20 04:41:59;;;;;;;2.47;0.52;;;16.00;99.90;;;;;;4948561;29;20031;-85
2022/07/20 04:44:27;;;;;;;2.13;0.68;;;16.10;99.90;;;;;;4944152;28;20035;-78
2022/07/20 04:46:54;;;;;;;2.35;1.10;;;16.10;99.90;;;;;;4942637;28;20031;-80
2022/07/20 04:49:21;;;;;;;9.02;4.20;;;16.20;99.90;;;;;;4945575;29;20462;-83
2022/07/20 04:51:49;;;;;;;1.67;0.88;;;16.00;99.90;;;;;;4943662;29;20065;-79
2022/07/20 04:54:18;;;;;;;0.80;0.47;;;15.80;99.90;;;;;;4945289;29;20368;-84
2022/07/20 04:56:47;;;;;;;0.57;0.20;;;15.50;99.90;;;;;;4943979;29;20023;-84
2022/07/20 04:59:15;;;;;;;0.57;0.38;;;15.20;99.90;;;;;;4950325;29;20053;-83
2022/07/20 05:01:42;;;;;;;0.65;0.40;;;15.00;99.90;;;;;;4947414;28;20031;-85
2022/07/20 05:04:10;;;;;;;0.45;0.22;;;14.90;99.90;;;;;;4945538;29;22044;-85
2022/07/20 05:06:37;;;;;;;0.20;0.20;;;14.60;99.90;;;;;;4951436;28;20042;-83
2022/07/20 05:09:07;;;;;;;0.20;0.20;;;14.60;99.90;;;;;;4950804;29;20545;-87
2022/07/20 05:11:35;;;;;;;0.28;0.28;;;14.50;99.90;;;;;;4945561;28;20035;-86
2022/07/20 05:14:02;;;;;;;1.55;0.20;;;14.40;99.90;;;;;;4940602;29;20027;-86
2022/07/20 05:16:29;;;;;;;0.20;0.20;;;14.30;99.90;;;;;;4945930;28;20032;-86
2022/07/20 05:18:57;;;;;;;0.70;0.30;;;14.30;99.90;;;;;;4940231;29;20485;-86
2022/07/20 05:21:24;;;;;;;0.65;0.40;;;14.20;99.90;;;;;;4951732;29;20027;-85
2022/07/20 05:23:52;;;;;;;1.08;0.75;;;14.20;99.90;;;;;;4948565;28;20446;-85
2022/07/20 05:26:19;;;;;;;0.73;0.43;;;14.10;99.90;;;;;;4942613;28;20027;-83
2022/07/20 05:28:47;;;;;;;0.65;0.38;;;14.10;99.90;;;;;;4943541;29;20019;-84
2022/07/20 05:31:14;;;;;;;3.05;1.63;;;14.10;99.90;;;;;;4943433;29;20035;-84
2022/07/20 05:33:43;;;;;;;2.90;0.60;;;14.20;99.90;;;;;;4944137;29;20134;-87
2022/07/20 05:36:10;;;;;;;1.70;0.40;;;14.20;99.90;;;;;;4944683;29;20039;-82
2022/07/20 05:38:38;;;;;;;1.15;0.65;;;14.20;99.90;;;;;;4953541;29;20047;-84
2022/07/20 05:41:06;;;;;;;0.95;0.40;;;14.30;99.90;;;;;;4936939;29;20047;-82
2022/07/20 05:43:34;;;;;;;1.52;0.50;;;14.30;99.90;;;;;;4945851;29;20027;-77
2022/07/20 05:46:01;;;;;;;3.70;0.50;;;14.30;99.90;;;;;;4940544;28;20034;-81
2022/07/20 05:48:30;;;;;;;0.95;0.30;;;14.30;99.90;;;;;;4938287;28;20155;-75
2022/07/20 05:50:57;;;;;;;1.05;0.50;;;14.30;99.90;;;;;;4942406;28;20039;-86
2022/07/20 05:53:25;;;;;;;0.55;0.30;;;14.30;99.90;;;;;;4946840;29;20031;-87
2022/07/20 05:55:53;;;;;;;0.98;0.30;;;14.20;99.90;;;;;;4942817;29;20481;-76
2022/07/20 05:58:21;;;;;;;4.10;0.50;;;14.20;99.90;;;;;;4939680;29;20043;-83
2022/07/20 06:00:48;;;;;;;1.55;0.20;;;14.10;99.90;;;;;;4940295;28;20059;-78
2022/07/20 06:03:15;;;;;;;1.13;0.47;;;14.00;99.90;;;;;;4939169;28;20184;-77
2022/07/20 06:05:43;;;;;;;1.80;0.40;;;14.00;99.90;;;;;;4948646;28;20041;-80
2022/07/20 06:08:10;;;;;;;0.60;0.40;;;13.90;99.90;;;;;;4948616;29;20066;-80
2022/07/20 06:10:38;;;;;;;0.90;0.30;;;13.80;99.90;;;;;;4948691;29;20034;-79
2022/07/20 06:13:05;;;;;;;0.28;0.25;;;13.80;99.90;;;;;;4945695;28;20043;-79
2022/07/20 06:15:33;;;;;;;0.90;0.30;;;13.90;99.90;;;;;;4933282;29;20055;-77
2022/07/20 06:18:01;;;;;;;1.73;0.50;;;13.90;99.90;;;;;;4947245;29;20478;-77
2022/07/20 06:20:28;;;;;;;0.50;0.43;;;13.90;99.90;;;;;;4951022;29;20120;-83
2022/07/20 06:22:58;;;;;;;1.63;0.47;;;13.80;99.90;;;;;;4945798;29;20066;-81
2022/07/20 06:25:26;;;;;;;3.47;0.98;;;13.80;99.90;;;;;;4944806;29;20475;-76
2022/07/20 06:27:53;;;;;;;0.38;0.30;;;13.80;99.90;;;;;;4932525;29;20047;-77
2022/07/20 06:30:21;;;;;;;2.35;0.68;;;13.70;99.90;;;;;;4951944;29;20395;-75
2022/07/20 06:32:48;;;;;;;3.25;0.50;;;13.60;99.90;;;;;;4936220;29;20106;-77
2022/07/20 06:35:16;;;;;;;1.10;0.45;;;13.60;99.90;;;;;;4951356;29;20032;-80
2022/07/20 06:37:44;;;;;;;1.45;0.50;;;13.50;99.90;;;;;;4947581;29;20129;-78
2022/07/20 06:40:11;;;;;;;2.63;0.80;;;13.50;99.90;;;;;;4947478;29;20039;-85
2022/07/20 06:42:39;;;;;;;1.33;0.45;;;13.50;99.90;;;;;;4939227;28;20430;-77
2022/07/20 06:45:07;;;;;;;1.98;0.30;;;13.50;99.90;;;;;;4940980;29;20390;-83
2022/07/20 06:47:34;;;;;;;2.40;1.38;;;13.40;99.90;;;;;;4935064;29;20027;-81
2022/07/20 06:50:03;;;;;;;3.83;0.60;;;13.30;99.90;;;;;;4948207;29;20027;-80
2022/07/20 06:52:35;;;;;;;1.88;0.80;;;13.20;99.90;;;;;;4944660;28;20058;-75
2022/07/20 06:55:03;;;;;;;0.80;0.52;;;13.30;99.90;;;;;;4944551;29;20182;-79
2022/07/20 06:57:30;;;;;;;2.20;0.57;;;13.20;99.90;;;;;;4943314;29;20150;-73
2022/07/20 06:59:57;;;;;;;1.55;0.60;;;13.20;99.90;;;;;;4943495;29;20126;-80
2022/07/20 07:02:25;;;;;;;0.60;0.50;;;13.10;99.90;;;;;;4942592;29;20035;-78
2022/07/20 07:04:52;;;;;;;0.52;0.50;;;13.10;99.90;;;;;;4941528;28;20035;-79
2022/07/20 07:07:20;;;;;;;1.80;1.25;;;13.10;99.90;;;;;;4943186;29;20490;-74
2022/07/20 07:09:47;;;;;;;1.30;0.90;;;13.10;99.90;;;;;;4948227;29;20661;-78
2022/07/20 07:12:14;;;;;;;0.90;0.80;;;13.10;99.90;;;;;;4940607;29;20032;-75
2022/07/20 07:14:42;;;;;;;2.08;1.00;;;13.10;99.90;;;;;;4948373;29;20121;-76
2022/07/20 07:17:09;;;;;;;1.13;0.85;;;13.10;99.90;;;;;;4941086;28;20492;-76
2022/07/20 07:19:37;;;;;;;1.95;0.70;;;13.10;99.90;;;;;;4947219;29;20094;-76
2022/07/20 07:22:04;;;;;;;2.60;1.10;;;13.10;99.90;;;;;;4942395;29;20031;-79
2022/07/20 07:24:32;;;;;;;1.60;0.45;;;13.10;99.90;;;;;;4945387;28;20038;-79
2022/07/20 07:26:59;;;;;;;0.70;0.40;;;13.00;99.90;;;;;;4948869;29;20078;-76
2022/07/20 07:29:27;;;;;;;3.08;0.80;;;13.00;99.90;;;;;;4950683;29;20027;-76
2022/07/20 07:32:01;;;;;;;0.98;0.50;;;12.90;99.90;;;;;;4943326;29;20027;-77
2022/07/20 07:34:29;;;;;;;0.68;0.47;;;12.90;99.90;;;;;;4941294;28;20055;-75
2022/07/20 07:36:56;;;;;;;1.83;1.00;;;12.90;99.90;;;;;;4951672;28;20121;-79
2022/07/20 07:39:24;;;;;;;1.05;0.50;;;12.90;99.90;;;;;;4954038;28;20039;-77
2022/07/20 07:41:51;;;;;;;0.70;0.70;;;12.90;99.90;;;;;;4953263;29;20031;-79
2022/07/20 07:44:19;;;;;;;0.88;0.60;;;12.80;99.90;;;;;;4952353;29;20477;-77
2022/07/20 07:46:46;;;;;;;3.35;0.90;;;12.80;99.90;;;;;;4952902;29;20046;-74
2022/07/20 07:49:13;;;;;;;2.92;1.98;;;12.80;99.90;;;;;;4950573;29;20027;-78
2022/07/20 07:51:41;;;;;;;1.88;1.67;;;12.80;99.90;;;;;;4940763;28;20094;-80
2022/07/20 07:54:09;;;;;;;5.32;1.50;;;12.80;99.90;;;;;;4942609;28;20031;-83
2022/07/20 07:56:37;;;;;;;2.83;1.30;;;12.80;99.90;;;;;;4940373;29;20106;-82
2022/07/20 07:59:04;;;;;;;2.75;1.25;;;12.70;99.90;;;;;;4952283;29;20135;-82
2022/07/20 08:01:34;;;;;;;1.92;1.13;;;12.70;99.90;;;;;;4952735;28;20027;-78
2022/07/20 08:04:03;;;;;;;1.23;1.08;;;12.70;99.90;;;;;;4950690;28;20053;-78
2022/07/20 08:06:30;;;;;;;1.35;1.15;;;12.70;99.90;;;;;;4943017;28;20062;-79
2022/07/20 08:08:58;;;;;;;1.30;1.10;;;12.70;99.90;;;;;;4949900;29;20039;-77
2022/07/20 08:11:25;;;;;;;3.95;0.98;;;12.70;99.90;;;;;;4950236;28;20416;-78
2022/07/20 08:13:53;;;;;;;3.63;1.70;;;12.60;99.90;;;;;;4951313;29;20164;-75
2022/07/20 08:16:21;;;;;;;2.85;1.27;;;12.50;99.90;;;;;;4946776;29;20070;-76
2022/07/20 08:18:48;;;;;;;3.50;1.60;;;12.50;99.90;;;;;;4943415;29;20134;-76
2022/07/20 08:21:16;;;;;;;1.67;1.02;;;12.50;99.90;;;;;;4945559;28;20035;-76
2022/07/20 08:23:43;;;;;;;2.67;1.52;;;12.40;99.90;;;;;;4951538;29;20030;-76
2022/07/20 08:26:11;;;;;;;3.70;1.50;;;12.30;99.90;;;;;;4937704;28;20078;-77
2022/07/20 08:28:39;;;;;;;1.52;1.08;;;12.20;99.90;;;;;;4948084;29;20031;-79
2022/07/20 08:31:07;;;;;;;2.60;1.17;;;12.20;99.90;;;;;;4953177;28;20054;-76
2022/07/20 08:33:34;;;;;;;1.23;1.00;;;12.10;99.90;;;;;;4952572;29;20130;-79
2022/07/20 08:36:02;;;;;;;3.30;1.33;;;12.00;99.90;;;;;;4951918;29;20114;-79
2022/07/20 08:38:29;;;;;;;1.38;1.20;;;12.00;99.90;;;;;;4953183;29;20059;-77
2022/07/20 08:40:58;;;;;;;2.35;1.20;;;11.80;99.90;;;;;;4953141;28;20441;-78
2022/07/20 08:43:25;;;;;;;2.88;1.50;;;11.80;99.90;;;;;;4952472;29;20087;-76
2022/07/20 08:45:53;;;;;;;1.77;1.40;;;11.70;99.90;;;;;;4935045;29;20062;-77
2022/07/20 08:48:20;;;;;;;3.33;1.45;;;11.70;99.90;;;;;;4953331;29;20038;-76
2022/07/20 08:50:48;;;;;;;3.55;1.30;;;11.70;99.90;;;;;;4953220;29;20090;-81
2022/07/20 08:53:18;;;;;;;2.83;1.30;;;11.70;99.90;;;;;;4952854;29;20519;-76
2022/07/20 08:55:47;;;;;;;4.00;2.05;;;11.80;99.90;;;;;;4953732;29;20482;-78
2022/07/20 08:58:17;;;;;;;1.52;1.27;;;11.80;99.90;;;;;;4951456;28;20431;-75
2022/07/20 09:00:44;;;;;;;2.33;2.13;;;11.90;99.90;;;;;;4946198;29;20039;-80
2022/07/20 09:03:13;;;;;;;3.95;2.80;;;11.90;99.90;;;;;;4952157;28;20102;-76
2022/07/20 09:05:41;;;;;;;5.85;2.55;;;11.90;99.90;;;;;;4953617;28;20450;-78
2022/07/20 09:08:14;;;;;;;3.03;2.30;;;11.90;99.90;;;;;;4947554;28;20031;-81
2022/07/20 09:10:46;;;;;;;6.63;2.65;;;12.00;99.90;;;;;;4939937;29;20037;-78
2022/07/20 09:13:17;;;;;;;3.83;2.30;;;12.00;99.90;;;;;;4940487;29;20102;-75
2022/07/20 09:15:56;;;;;;;6.30;2.03;;;12.00;99.90;;;;;;4950072;29;20016;-77
2022/07/20 09:18:28;;;;;;;2.10;1.83;;;12.00;99.90;;;;;;4947924;29;20077;-77
2022/07/20 09:20:59;;;;;;;2.17;1.95;;;12.00;99.90;;;;;;4953056;28;20486;-78
2022/07/20 09:23:33;;;;;;;7.68;2.08;;;12.10;99.90;;;;;;4941733;29;20113;-76
2022/07/20 09:26:04;;;;;;;2.88;1.58;;;12.00;99.90;;;;;;4952293;29;20031;-78
2022/07/20 09:28:35;;;;;;;3.05;1.40;;;12.10;99.90;;;;;;4941056;29;20086;-76
2022/07/20 09:31:04;;;;;;;2.90;2.00;;;12.10;99.90;;;;;;4934973;29;20434;-76
2022/07/20 09:33:33;;;;;;;3.42;1.92;;;12.10;99.90;;;;;;4949301;29;20517;-77
2022/07/20 09:36:05;;;;;;;3.10;1.77;;;12.00;99.90;;;;;;4934231;29;20541;-76
2022/07/20 09:38:38;;;;;;;2.58;1.90;;;12.00;99.90;;;;;;4952278;29;20132;-75
2022/07/20 09:41:25;;;;;;;2.50;1.77;;;12.00;99.90;;;;;;4951429;29;20023;-77
2022/07/20 09:43:53;;;;;;;2.83;1.75;;;12.00;99.90;;;;;;4938089;29;20093;-75
2022/07/20 09:46:29;;;;;;;3.30;1.98;;;12.00;99.90;;;;;;4948683;29;20031;-79
2022/07/20 09:48:59;;;;;;;2.75;1.90;;;12.00;99.90;;;;;;4937367;29;20033;-76
2022/07/20 09:51:44;;;;;;;3.55;2.50;;;11.90;99.90;;;;;;4937645;28;20447;-77
2022/07/20 09:54:16;;;;;;;3.40;2.00;;;11.90;99.90;;;;;;4945950;29;20076;-76
2022/07/20 09:56:49;;;;;;;4.45;2.35;;;11.90;99.90;;;;;;4950566;28;20023;-77
2022/07/20 09:59:17;;;;;;;5.15;2.25;;;11.90;99.90;;;;;;4951948;29;20094;-75
2022/07/20 10:01:49;;;;;;;3.00;2.25;;;11.90;99.90;;;;;;4950701;29;20027;-75
2022/07/20 10:04:18;;;;;;;2.50;2.30;;;11.90;99.90;;;;;;4952278;29;20035;-76
2022/07/20 10:06:50;;;;;;;3.65;2.47;;;11.90;99.90;;;;;;4950477;29;20027;-77
2022/07/20 10:09:18;;;;;;;3.90;2.47;;;12.00;99.90;;;;;;4952806;29;20058;-75
2022/07/20 10:11:48;;;;;;;5.13;2.80;;;12.00;99.90;;;;;;4950706;29;20037;-75
2022/07/20 10:14:21;;;;;;;4.32;2.85;;;12.00;99.90;;;;;;4952865;29;20075;-76
2022/07/20 10:16:55;;;;;;;5.15;3.65;;;12.00;99.90;;;;;;4948531;29;20054;-78
2022/07/20 10:19:46;;;;;;;5.10;3.60;;;12.00;99.90;;;;;;4933230;29;20054;-78
2022/07/20 10:22:14;;;;;;;4.72;3.38;;;12.00;99.90;;;;;;4946467;29;20038;-77
2022/07/20 10:24:43;;;;;;;5.45;3.25;;;12.00;99.90;;;;;;4951005;28;20069;-79
2022/07/20 10:27:15;;;;;;;4.28;2.85;;;12.00;99.90;;;;;;4951257;29;20042;-82
2022/07/20 10:29:47;;;;;;;4.03;3.08;;;12.00;99.90;;;;;;4951925;29;20331;-77
2022/07/20 10:32:20;;;;;;;3.83;2.70;;;11.90;99.90;;;;;;4949973;29;20047;-77
2022/07/20 10:35:23;;;;;;;7.55;4.72;;;12.00;99.90;;;;;;4950555;29;20062;-78
2022/07/20 10:37:53;;;;;;;8.57;3.85;;;11.90;99.90;;;;;;4949363;29;20445;-79
2022/07/20 10:40:24;;;;;;;3.97;3.58;;;11.90;99.90;;;;;;4950732;29;20099;-82
2022/07/20 10:43:13;;;;;;;11.13;4.40;;;11.80;99.90;;;;;;4939202;29;20039;-79
2022/07/20 10:45:40;;;;;;;6.20;4.30;;;11.80;99.90;;;;;;4951665;28;20672;-84
2022/07/20 10:48:14;;;;;;;6.72;3.70;;;11.70;99.90;;;;;;4950685;29;20028;-77
2022/07/20 10:50:42;;;;;;;4.13;3.72;;;11.60;99.90;;;;;;4952016;29;20138;-80
2022/07/20 10:53:15;;;;;;;4.95;3.30;;;11.50;99.90;;;;;;4940139;28;20027;-84
2022/07/20 10:55:58;;;;;;;5.40;3.70;;;11.50;99.90;;;;;;4951706;29;20039;-82
2022/07/20 10:58:31;;;;;;;5.28;3.22;;;11.40;99.90;;;;;;4943361;29;20449;-83
2022/07/20 11:01:03;;;;;;;4.40;2.88;;;11.40;99.90;;;;;;4951146;29;20126;-80
2022/07/20 11:03:40;;;;;;;4.70;3.28;;;11.30;99.90;;;;;;4946982;29;20078;-83
2022/07/20 11:06:20;;;;;;;5.75;3.70;;;11.30;99.90;;;;;;4944349;29;20031;-78
2022/07/20 11:08:52;;;;;;;3.85;3.42;;;11.30;99.90;;;;;;4948321;28;20073;-76
2022/07/20 11:11:33;;;;;;;6.55;3.88;;;11.20;99.90;;;;;;4952633;29;20038;-83
2022/07/20 11:14:04;;;;;;;4.95;3.05;;;11.20;99.90;;;;;;4949146;29;20031;-81
2022/07/20 11:16:35;;;;;;;5.65;2.63;;;11.20;99.90;;;;;;4942025;29;20031;-82
2022/07/20 11:19:05;;;;;;;4.93;2.42;;;11.10;99.90;;;;;;4954158;28;20131;-80
2022/07/20 11:21:33;;;;;;;3.30;2.58;;;11.10;99.90;;;;;;4951439;28;20392;-78
2022/07/20 11:24:01;;;;;;;5.90;3.42;;;11.10;99.90;;;;;;4948872;29;20458;-82
2022/07/20 11:26:28;;;;;;;3.00;2.40;;;11.00;99.90;;;;;;4953435;29;20118;-80
2022/07/20 11:28:58;;;;;;;3.20;2.17;;;11.00;99.90;;;;;;4955455;29;20042;-83
2022/07/20 11:31:30;;;;;;;3.47;1.85;;;11.00;99.90;;;;;;4953517;29;20020;-83
2022/07/20 11:34:00;;;;;;;4.55;1.70;;;11.00;99.90;;;;;;4954125;28;20051;-81
2022/07/20 11:36:32;;;;;;;1.92;1.77;;;11.00;99.90;;;;;;4950261;28;20042;-80
2022/07/20 11:39:05;;;;;;;2.42;1.58;;;11.00;99.90;;;;;;4954692;29;20114;-80
2022/07/20 11:41:36;;;;;;;4.65;2.17;;;11.00;99.90;;;;;;4952866;29;20019;-77
2022/07/20 11:44:06;;;;;;;3.65;2.30;;;11.00;99.90;;;;;;4953794;29;20482;-83
2022/07/20 11:46:40;;;;;;;4.75;2.03;;;11.00;99.90;;;;;;4953254;29;20035;-76
2022/07/20 11:49:15;;;;;;;4.32;2.28;;;11.10;99.90;;;;;;4946735;29;20036;-77
2022/07/20 11:52:05;;;;;;;2.37;1.90;;;11.10;99.90;;;;;;4937209;29;20034;-77
2022/07/20 11:54:37;;;;;;;2.05;1.52;;;11.20;99.90;;;;;;4955040;29;20705;-82
2022/07/20 11:57:06;;;;;;;2.03;1.33;;;11.20;99.90;;;;;;4945787;29;20035;-79
2022/07/20 11:59:42;;;;;;;2.65;1.42;;;11.20;99.90;;;;;;4952810;29;20055;-80
2022/07/20 12:02:12;;;;;;;2.65;2.05;;;11.30;99.90;;;;;;4953895;29;20042;-81
2022/07/20 12:04:40;;;;;;;3.00;2.00;;;11.30;99.90;;;;;;4952162;28;20450;-80
2022/07/20 12:09:53;;;;;;;3.83;2.60;;;11.30;99.90;;;;;;4953445;29;20121;-83
2022/07/20 12:12:46;;;;;;;5.28;3.83;;;11.40;99.90;;;;;;4951182;28;20027;-80
2022/07/20 12:15:14;;;;;;;5.07;3.90;;;11.40;99.90;;;;;;4953565;29;20397;-77
2022/07/20 12:17:52;;;;;;;6.95;4.00;;;11.40;99.90;;;;;;4946141;29;20050;-84
2022/07/20 12:20:20;;;;;;;3.90;3.35;;;11.40;99.90;;;;;;4954287;28;20047;-83
2022/07/20 12:22:59;;;;;;;4.38;3.53;;;11.40;99.90;;;;;;4940433;29;20027;-84
2022/07/20 12:25:38;;;;;;;4.32;3.63;;;11.50;99.90;;;;;;4954723;29;20027;-82
2022/07/20 12:28:06;;;;;;;3.85;3.30;;;11.40;99.90;;;;;;4940340;29;20408;-83
2022/07/20 12:30:38;;;;;;;4.13;3.50;;;11.40;99.90;;;;;;4942191;29;20091;-80
2022/07/20 12:33:12;;;;;;;2.55;1.45;;;11.30;99.90;;;;;;4952178;29;20084;-83
2022/07/20 12:35:48;;;;;;;1.83;1.30;;;11.30;99.90;;;;;;4953942;29;20031;-84
2022/07/20 12:38:15;;;;;;;;;;;11.30;99.90;;;;;;4951739;29;20536;-86
2022/07/20 12:40:48;;;;;;;1.40;0.90;;;11.20;99.90;;;;;;4950801;28;19957;-76
2022/07/20 12:43:34;;;;;;;4.00;1.38;;;11.30;99.90;;;;;;4952738;29;20043;-79
2022/07/20 12:46:07;;;;;;;3.17;1.08;;;11.30;99.90;;;;;;4948288;29;20095;-83
2022/07/20 12:48:36;;;;;;;1.40;1.20;;;11.30;99.90;;;;;;4952772;29;20031;-83
2022/07/20 12:51:05;;;;;;;1.50;1.38;;;11.30;99.90;;;;;;4950280;29;20039;-81
2022/07/20 12:53:33;;;;;;;2.78;1.42;;;11.30;99.90;;;;;;4951522;28;20115;-80
2022/07/20 12:56:01;;;;;;;1.80;1.50;;;11.30;99.90;;;;;;4946206;28;21828;-80
2022/07/20 12:58:28;;;;;;;2.08;1.85;;;11.40;99.90;;;;;;4949011;29;20043;-77
2022/07/20 13:00:56;;;;;;;2.58;1.90;;;11.30;99.90;;;;;;4950017;29;20520;-80